Time;durP1;ratioP1;P1;durP2;ratioP2;P2;SDS_P1;SDS_P2;PMS_P1;PMS_P2;Temp;Humidity;BMP_temperature;BMP_pressure;BME280_temperature;BME280_humidity;BME280_pressure;Samples;Min_cycle;Max_cycle;Signal;HPM_P1;HPM_P2
2023/03/16 00:02:07;;;;;;;6.68;2.60;;;2.00;99.90;;;;;;5069824;28;20035;-45
2023/03/16 00:04:36;;;;;;;14.30;2.75;;;2.00;99.90;;;;;;5078759;28;20081;-45
2023/03/16 00:07:03;;;;;;;12.73;3.40;;;1.90;99.90;;;;;;5077241;28;20024;-46
2023/03/16 00:09:30;;;;;;;13.20;3.33;;;1.90;99.90;;;;;;5069853;28;20032;-45
2023/03/16 00:12:02;;;;;;;9.07;3.83;;;1.90;99.90;;;;;;5068613;28;20028;-45
2023/03/16 00:14:28;;;;;;;9.02;3.17;;;1.90;99.90;;;;;;5069671;28;20020;-44
2023/03/16 00:16:54;;;;;;;11.57;2.97;;;1.90;99.90;;;;;;5070028;28;20544;-44
2023/03/16 00:19:21;;;;;;;7.20;2.80;;;1.90;99.90;;;;;;5074769;28;20066;-44
2023/03/16 00:21:50;;;;;;;7.80;2.90;;;1.90;99.90;;;;;;5073693;28;20016;-44
2023/03/16 00:24:18;;;;;;;10.75;3.30;;;1.90;99.90;;;;;;5061636;28;20025;-45
2023/03/16 00:26:47;;;;;;;10.95;3.28;;;1.90;99.90;;;;;;5070039;28;20021;-44
2023/03/16 00:29:13;;;;;;;9.70;3.50;;;1.90;99.90;;;;;;5078098;28;20048;-44
2023/03/16 00:31:42;;;;;;;9.35;2.92;;;1.90;99.90;;;;;;5084833;28;20525;-44
2023/03/16 00:34:11;;;;;;;6.00;2.65;;;1.90;99.90;;;;;;5068126;28;20641;-45
2023/03/16 00:36:37;;;;;;;10.48;2.97;;;1.90;99.90;;;;;;5075355;28;20245;-44
2023/03/16 00:39:06;;;;;;;6.97;2.58;;;2.00;99.90;;;;;;5069283;28;20707;-45
2023/03/16 00:41:36;;;;;;;7.45;2.40;;;2.00;99.90;;;;;;5074527;28;20024;-47
2023/03/16 00:44:05;;;;;;;11.50;3.13;;;2.00;99.90;;;;;;5079316;28;20023;-45
2023/03/16 00:46:31;;;;;;;7.80;3.53;;;1.90;99.90;;;;;;5063326;28;20115;-45
2023/03/16 00:48:56;;;;;;;9.30;3.03;;;2.00;99.90;;;;;;5069175;28;20275;-45
2023/03/16 00:51:22;;;;;;;8.98;3.05;;;1.90;99.90;;;;;;5068234;28;20041;-44
2023/03/16 00:53:48;;;;;;;8.77;2.65;;;1.90;99.90;;;;;;5068941;28;20720;-44
2023/03/16 00:56:14;;;;;;;8.63;3.00;;;1.80;99.90;;;;;;5065867;28;20077;-44
2023/03/16 00:58:41;;;;;;;13.43;3.00;;;1.90;99.90;;;;;;5069600;28;20420;-44
2023/03/16 01:01:13;;;;;;;8.35;2.40;;;1.80;99.90;;;;;;5068770;28;20111;-44
2023/03/16 01:03:39;;;;;;;9.52;2.22;;;1.80;99.90;;;;;;5077396;28;20428;-44
2023/03/16 01:06:14;;;;;;;11.25;2.78;;;1.90;99.90;;;;;;5068679;28;20024;-46
2023/03/16 01:08:40;;;;;;;5.32;2.25;;;1.80;99.90;;;;;;5077236;28;20486;-44
2023/03/16 01:11:09;;;;;;;9.15;2.30;;;1.80;99.90;;;;;;5071533;28;20116;-44
2023/03/16 01:13:35;;;;;;;9.80;1.95;;;1.80;99.90;;;;;;5074718;28;20470;-44
2023/03/16 01:16:03;;;;;;;9.77;3.08;;;1.90;99.90;;;;;;5068631;28;20017;-44
2023/03/16 01:18:29;;;;;;;5.97;2.30;;;1.90;99.90;;;;;;5069167;28;20028;-45
2023/03/16 01:20:55;;;;;;;9.50;2.65;;;1.90;99.90;;;;;;5077170;28;20063;-44
2023/03/16 01:23:21;;;;;;;9.15;3.00;;;1.80;99.90;;;;;;5067316;28;20056;-47
2023/03/16 01:25:53;;;;;;;9.63;2.80;;;1.80;99.90;;;;;;5068457;28;20054;-45
2023/03/16 01:28:20;;;;;;;6.45;2.90;;;1.80;99.90;;;;;;5069103;28;20178;-44
2023/03/16 01:30:46;;;;;;;10.43;2.72;;;1.80;99.90;;;;;;5068918;28;20021;-46
2023/03/16 01:33:11;;;;;;;8.55;3.25;;;1.80;99.90;;;;;;5067602;28;20024;-45
2023/03/16 01:35:37;;;;;;;11.10;3.35;;;1.80;99.90;;;;;;5075353;28;20039;-45
2023/03/16 01:38:03;;;;;;;11.00;3.40;;;1.70;99.90;;;;;;5070269;28;20024;-47
2023/03/16 01:40:30;;;;;;;7.38;2.78;;;1.80;99.90;;;;;;5067455;28;20021;-45
2023/03/16 01:43:03;;;;;;;13.73;2.63;;;1.80;99.90;;;;;;5077042;28;20496;-44
2023/03/16 01:45:57;;;;;;;9.65;2.20;;;1.80;99.90;;;;;;5068480;28;20036;-46
2023/03/16 01:48:24;;;;;;;8.30;2.10;;;1.70;99.90;;;;;;5066737;28;20381;-45
2023/03/16 01:50:51;;;;;;;9.25;1.98;;;1.70;99.90;;;;;;5072019;28;20040;-46
2023/03/16 01:53:17;;;;;;;6.38;2.08;;;1.70;99.90;;;;;;5076794;28;20658;-45
2023/03/16 01:55:43;;;;;;;11.05;2.95;;;1.70;99.90;;;;;;5068311;28;20024;-46
2023/03/16 01:58:10;;;;;;;10.73;2.22;;;1.70;99.90;;;;;;5068438;28;20028;-45
2023/03/16 02:00:36;;;;;;;8.32;2.30;;;1.70;99.90;;;;;;5077345;28;20028;-46
2023/03/16 02:03:12;;;;;;;5.88;2.20;;;1.70;99.90;;;;;;5070419;28;20032;-44
2023/03/16 02:05:57;;;;;;;8.15;2.78;;;1.70;99.90;;;;;;5066283;28;20036;-48
2023/03/16 02:08:24;;;;;;;11.43;2.40;;;1.70;99.90;;;;;;5070189;28;20531;-45
2023/03/16 02:10:53;;;;;;;11.00;2.50;;;1.70;99.90;;;;;;5066654;28;20028;-45
2023/03/16 02:13:20;;;;;;;5.65;2.00;;;1.70;99.90;;;;;;5067936;28;20017;-39
2023/03/16 02:15:46;;;;;;;8.93;2.08;;;1.70;99.90;;;;;;5066285;28;20028;-39
2023/03/16 02:18:13;;;;;;;4.53;1.67;;;1.80;99.90;;;;;;5067617;28;20305;-39
2023/03/16 02:20:47;;;;;;;2.53;1.45;;;1.80;99.90;;;;;;5067760;28;20393;-38
2023/03/16 02:23:17;;;;;;;3.95;1.67;;;1.80;99.90;;;;;;5067652;28;20028;-39
2023/03/16 02:26:01;;;;;;;10.18;2.63;;;1.80;99.90;;;;;;5066936;28;20024;-39
2023/03/16 02:28:48;;;;;;;6.75;2.15;;;1.80;99.90;;;;;;5067335;28;20378;-38
2023/03/16 02:31:15;;;;;;;9.70;2.25;;;1.80;99.90;;;;;;5064628;28;20029;-39
2023/03/16 02:33:42;;;;;;;5.97;2.00;;;1.80;99.90;;;;;;5067755;28;20494;-38
2023/03/16 02:36:08;;;;;;;7.65;2.35;;;1.80;99.90;;;;;;5067012;28;20020;-39
2023/03/16 02:38:33;;;;;;;7.07;2.17;;;1.80;99.90;;;;;;5049654;28;20035;-39
2023/03/16 02:41:09;;;;;;;11.85;1.77;;;1.80;99.90;;;;;;5048073;28;20031;-39
2023/03/16 02:43:38;;;;;;;6.45;1.52;;;1.90;99.90;;;;;;5048314;28;20017;-38
2023/03/16 02:46:05;;;;;;;7.30;1.92;;;1.90;99.90;;;;;;5047401;28;20104;-38
2023/03/16 02:48:44;;;;;;;5.50;1.67;;;1.90;99.90;;;;;;5047630;28;20032;-39
2023/03/16 02:51:10;;;;;;;9.07;2.13;;;1.80;99.90;;;;;;5043563;28;20591;-44
2023/03/16 02:53:36;;;;;;;9.18;2.20;;;1.80;99.90;;;;;;5042296;28;20025;-45
2023/03/16 02:56:02;;;;;;;5.05;1.73;;;1.80;99.90;;;;;;5049585;28;20021;-45
2023/03/16 02:58:28;;;;;;;9.90;1.95;;;1.80;99.90;;;;;;5043454;28;20492;-45
2023/03/16 03:00:54;;;;;;;6.95;2.22;;;1.70;99.90;;;;;;5055442;28;20021;-45
2023/03/16 03:03:19;;;;;;;6.80;2.88;;;1.70;99.90;;;;;;5044426;28;20036;-44
2023/03/16 03:05:45;;;;;;;6.50;1.48;;;1.60;99.90;;;;;;5043565;28;20030;-44
2023/03/16 03:08:11;;;;;;;8.65;1.50;;;1.60;99.90;;;;;;5044863;28;20569;-44
2023/03/16 03:10:36;;;;;;;11.90;1.98;;;1.60;99.90;;;;;;5044452;28;20102;-44
2023/03/16 03:13:02;;;;;;;10.20;1.85;;;1.60;99.90;;;;;;5043488;28;20382;-48
2023/03/16 03:15:27;;;;;;;4.55;1.83;;;1.60;99.90;;;;;;5045276;28;20029;-46
2023/03/16 03:17:53;;;;;;;4.07;1.88;;;1.60;99.90;;;;;;5050955;28;20071;-44
2023/03/16 03:20:19;;;;;;;11.40;1.90;;;1.60;99.90;;;;;;5049617;28;20493;-44
2023/03/16 03:22:47;;;;;;;5.18;1.88;;;1.50;99.90;;;;;;5051421;28;20019;-46
2023/03/16 03:25:14;;;;;;;6.75;1.90;;;1.50;99.90;;;;;;5058960;28;20028;-46
2023/03/16 03:27:41;;;;;;;7.93;1.70;;;1.50;99.90;;;;;;5059118;28;20022;-45
2023/03/16 03:30:09;;;;;;;6.85;2.10;;;1.40;99.90;;;;;;5050677;28;20504;-45
2023/03/16 03:32:34;;;;;;;7.68;1.90;;;1.40;99.90;;;;;;5050841;28;20025;-44
2023/03/16 03:35:00;;;;;;;7.93;1.95;;;1.40;99.90;;;;;;5050461;28;20074;-44
2023/03/16 03:37:25;;;;;;;9.93;1.70;;;1.40;99.90;;;;;;5049445;28;20013;-45
2023/03/16 03:39:52;;;;;;;5.43;2.72;;;1.40;99.90;;;;;;5049950;28;20082;-44
2023/03/16 03:42:18;;;;;;;8.98;1.70;;;1.40;99.90;;;;;;5058803;28;20210;-46
2023/03/16 03:44:43;;;;;;;11.35;2.08;;;1.40;99.90;;;;;;5050196;28;20048;-47
2023/03/16 03:47:09;;;;;;;6.00;2.25;;;1.40;99.90;;;;;;5050272;28;20045;-45
2023/03/16 03:49:35;;;;;;;7.80;1.65;;;1.40;99.90;;;;;;5050736;28;20013;-46
2023/03/16 03:52:03;;;;;;;9.30;1.60;;;1.40;99.90;;;;;;5050462;28;20359;-44
2023/03/16 03:54:29;;;;;;;6.65;1.85;;;1.40;99.90;;;;;;5055334;28;20512;-46
2023/03/16 03:56:55;;;;;;;5.18;1.40;;;1.40;99.90;;;;;;5061148;28;20029;-47
2023/03/16 03:59:21;;;;;;;9.55;1.58;;;1.40;99.90;;;;;;5050187;28;20035;-44
2023/03/16 04:01:47;;;;;;;4.55;1.50;;;1.40;99.90;;;;;;5050271;28;20048;-45
2023/03/16 04:04:14;;;;;;;4.38;1.70;;;1.40;99.90;;;;;;5058197;28;20074;-46
2023/03/16 04:06:40;;;;;;;5.30;1.65;;;1.50;99.90;;;;;;5058461;28;20031;-45
2023/03/16 04:09:06;;;;;;;11.35;2.00;;;1.50;99.90;;;;;;5048167;28;20017;-45
2023/03/16 04:11:32;;;;;;;5.75;1.70;;;1.50;99.90;;;;;;5049956;28;20029;-46
2023/03/16 04:13:57;;;;;;;5.72;1.65;;;1.60;99.90;;;;;;5049984;28;20017;-45
2023/03/16 04:16:25;;;;;;;6.13;1.50;;;1.60;99.90;;;;;;5049748;28;20025;-46
2023/03/16 04:18:53;;;;;;;8.70;1.70;;;1.60;99.90;;;;;;5058334;28;20024;-44
2023/03/16 04:21:19;;;;;;;4.65;1.48;;;1.70;99.90;;;;;;5058446;28;20101;-45
2023/03/16 04:23:46;;;;;;;5.82;1.10;;;1.70;99.90;;;;;;5056892;28;20198;-45
2023/03/16 04:26:12;;;;;;;6.68;1.90;;;1.70;99.90;;;;;;5049503;28;20107;-46
2023/03/16 04:28:38;;;;;;;5.55;2.45;;;1.60;99.90;;;;;;5050198;28;20149;-46
2023/03/16 04:31:06;;;;;;;4.80;1.38;;;1.60;99.90;;;;;;5058131;28;20032;-47
2023/03/16 04:33:33;;;;;;;13.90;1.50;;;1.60;99.90;;;;;;5049722;28;20248;-48
2023/03/16 04:35:58;;;;;;;2.65;1.95;;;1.60;99.90;;;;;;5049506;28;20032;-45
2023/03/16 04:38:24;;;;;;;3.08;1.50;;;1.60;99.90;;;;;;5055975;28;20479;-47
2023/03/16 04:40:50;;;;;;;7.35;1.88;;;1.60;99.90;;;;;;5048106;28;20024;-44
2023/03/16 04:43:15;;;;;;;6.57;1.60;;;1.60;99.90;;;;;;5050192;28;20463;-47
2023/03/16 04:45:41;;;;;;;6.90;1.67;;;1.60;99.90;;;;;;5049487;28;20047;-47
2023/03/16 04:48:07;;;;;;;10.18;1.85;;;1.60;99.90;;;;;;5057591;28;20028;-46
2023/03/16 04:50:32;;;;;;;6.38;1.15;;;1.70;99.90;;;;;;5057709;28;20080;-47
2023/03/16 04:52:58;;;;;;;8.57;1.60;;;1.70;99.90;;;;;;5048100;28;20390;-46
2023/03/16 04:55:23;;;;;;;6.40;1.42;;;1.70;99.90;;;;;;5053636;28;20443;-47
2023/03/16 04:57:49;;;;;;;6.00;1.98;;;1.70;99.90;;;;;;5052644;28;20020;-46
2023/03/16 05:00:19;;;;;;;8.18;1.65;;;1.70;99.90;;;;;;5049380;28;20422;-44
2023/03/16 05:02:46;;;;;;;6.70;1.92;;;1.70;99.90;;;;;;5047909;28;20028;-45
2023/03/16 05:05:12;;;;;;;6.07;1.45;;;1.70;99.90;;;;;;5052160;28;20020;-43
2023/03/16 05:07:38;;;;;;;5.38;1.90;;;1.60;99.90;;;;;;5069463;28;20025;-43
2023/03/16 05:10:04;;;;;;;6.40;2.20;;;1.60;99.90;;;;;;5048777;28;20017;-45
2023/03/16 05:12:29;;;;;;;7.13;1.80;;;1.60;99.90;;;;;;5048892;28;20078;-43
2023/03/16 05:14:55;;;;;;;3.97;1.42;;;1.60;99.90;;;;;;5056849;28;20025;-43
2023/03/16 05:17:21;;;;;;;6.60;1.30;;;1.50;99.90;;;;;;5047281;28;20035;-44
2023/03/16 05:19:47;;;;;;;5.32;1.40;;;1.50;99.90;;;;;;5057676;28;20070;-44
2023/03/16 05:22:12;;;;;;;6.72;1.33;;;1.60;99.90;;;;;;5057326;28;20433;-43
2023/03/16 05:24:38;;;;;;;4.35;1.52;;;1.60;99.90;;;;;;5055259;28;20028;-44
2023/03/16 05:27:03;;;;;;;8.63;1.70;;;1.50;99.90;;;;;;5050298;28;20060;-44
2023/03/16 05:29:32;;;;;;;5.32;1.30;;;1.50;99.90;;;;;;5048960;28;20092;-43
2023/03/16 05:31:58;;;;;;;2.65;1.15;;;1.40;99.90;;;;;;5046353;28;20021;-44
2023/03/16 05:34:24;;;;;;;3.92;1.25;;;1.40;99.90;;;;;;5038521;28;20563;-44
2023/03/16 05:36:49;;;;;;;8.93;1.63;;;1.20;99.90;;;;;;5048031;28;20021;-44
2023/03/16 05:39:15;;;;;;;7.50;1.25;;;1.20;99.90;;;;;;5042564;28;20514;-44
2023/03/16 05:41:40;;;;;;;6.18;1.30;;;1.20;99.90;;;;;;5040867;28;20029;-43
2023/03/16 05:44:07;;;;;;;5.95;1.30;;;1.10;99.90;;;;;;5042388;28;20028;-43
2023/03/16 05:46:32;;;;;;;5.28;1.73;;;1.20;99.90;;;;;;5039973;28;20116;-45
2023/03/16 05:48:58;;;;;;;7.43;1.85;;;1.10;99.90;;;;;;5042886;28;20456;-45
2023/03/16 05:51:27;;;;;;;6.05;2.03;;;1.10;99.90;;;;;;5040827;28;20025;-44
2023/03/16 05:53:56;;;;;;;5.65;2.10;;;1.10;99.90;;;;;;5047098;28;20017;-44
2023/03/16 05:56:27;;;;;;;3.92;1.20;;;1.00;99.90;;;;;;5046546;28;20482;-44
2023/03/16 05:58:54;;;;;;;3.85;1.55;;;1.00;99.90;;;;;;5048429;28;20017;-44
2023/03/16 06:01:20;;;;;;;12.40;1.73;;;1.00;99.90;;;;;;5048538;28;20397;-44
2023/03/16 06:03:47;;;;;;;6.75;1.67;;;0.90;99.90;;;;;;5047113;28;20082;-47
2023/03/16 06:06:14;;;;;;;9.20;1.58;;;0.90;99.90;;;;;;5056608;28;20109;-45
2023/03/16 06:08:39;;;;;;;4.13;1.30;;;1.00;99.90;;;;;;5048109;28;20087;-44
2023/03/16 06:11:05;;;;;;;7.75;1.42;;;1.00;99.90;;;;;;5048162;28;20433;-44
2023/03/16 06:13:31;;;;;;;4.47;2.38;;;1.10;99.90;;;;;;5055418;28;20516;-45
2023/03/16 06:15:56;;;;;;;3.15;1.30;;;1.10;99.90;;;;;;5047510;28;20013;-45
2023/03/16 06:18:22;;;;;;;7.13;1.73;;;1.20;99.90;;;;;;5051891;28;20024;-45
2023/03/16 06:20:47;;;;;;;4.68;1.45;;;1.20;99.90;;;;;;5060541;28;20382;-44
2023/03/16 06:23:13;;;;;;;9.40;2.78;;;1.20;99.90;;;;;;5048154;28;20021;-44
2023/03/16 06:25:39;;;;;;;10.13;4.55;;;1.30;99.90;;;;;;5047632;28;20386;-44
2023/03/16 06:28:06;;;;;;;13.00;4.10;;;1.30;99.90;;;;;;5048287;28;20470;-44
2023/03/16 06:30:31;;;;;;;15.90;5.78;;;1.30;99.90;;;;;;5050034;28;20048;-44
2023/03/16 06:32:58;;;;;;;11.65;4.43;;;1.30;99.90;;;;;;5060730;28;20459;-44
2023/03/16 06:35:24;;;;;;;12.07;4.55;;;1.40;99.80;;;;;;5051368;28;20017;-44
2023/03/16 06:37:50;;;;;;;13.57;4.97;;;1.40;99.70;;;;;;5051638;28;20062;-44
2023/03/16 06:40:16;;;;;;;8.45;4.10;;;1.50;99.10;;;;;;5051606;28;20029;-44
2023/03/16 06:42:42;;;;;;;11.73;3.28;;;1.50;99.00;;;;;;5059090;28;20017;-45
2023/03/16 06:45:08;;;;;;;8.57;2.80;;;1.50;99.10;;;;;;5051939;28;20024;-45
2023/03/16 06:47:34;;;;;;;6.43;2.45;;;1.60;98.90;;;;;;5051386;28;20021;-45
2023/03/16 06:49:59;;;;;;;5.22;1.90;;;1.70;99.10;;;;;;5051580;28;20367;-45
2023/03/16 06:52:25;;;;;;;7.53;1.55;;;1.70;99.10;;;;;;5051152;28;20027;-44
2023/03/16 06:54:50;;;;;;;6.22;1.75;;;1.80;99.20;;;;;;5058648;28;20028;-46
2023/03/16 06:57:16;;;;;;;4.75;1.55;;;1.90;99.10;;;;;;5051715;28;20021;-45
2023/03/16 06:59:42;;;;;;;7.20;1.90;;;2.00;99.10;;;;;;5051682;28;20021;-44
2023/03/16 07:02:13;;;;;;;6.68;1.60;;;2.10;99.30;;;;;;5054245;28;20029;-45
2023/03/16 07:04:39;;;;;;;5.03;1.65;;;2.20;99.30;;;;;;5056287;28;20433;-45
2023/03/16 07:07:04;;;;;;;7.95;1.90;;;2.30;99.20;;;;;;5050995;28;20047;-44
2023/03/16 07:09:30;;;;;;;4.53;1.38;;;2.40;99.00;;;;;;5051411;28;20013;-44
2023/03/16 07:11:56;;;;;;;10.65;1.80;;;2.60;98.70;;;;;;5059640;28;20020;-44
2023/03/16 07:14:23;;;;;;;6.70;2.75;;;2.80;98.40;;;;;;5051185;28;20092;-44
2023/03/16 07:16:49;;;;;;;6.75;1.60;;;2.90;98.50;;;;;;5051358;28;20028;-44
2023/03/16 07:19:14;;;;;;;4.90;1.45;;;3.00;98.70;;;;;;5051238;28;20120;-45
2023/03/16 07:21:40;;;;;;;9.63;1.40;;;3.20;98.60;;;;;;5050999;28;20021;-44
2023/03/16 07:24:07;;;;;;;7.28;1.85;;;3.30;98.30;;;;;;5050539;28;20086;-44
2023/03/16 07:26:33;;;;;;;4.55;1.30;;;3.50;98.30;;;;;;5050778;28;20452;-45
2023/03/16 07:29:00;;;;;;;8.05;1.80;;;3.70;98.00;;;;;;5050978;28;20103;-45
2023/03/16 07:31:26;;;;;;;4.88;1.50;;;4.00;98.00;;;;;;5059401;28;20412;-44
2023/03/16 07:33:51;;;;;;;3.92;1.30;;;4.20;97.80;;;;;;5059470;28;20048;-44
2023/03/16 07:36:17;;;;;;;4.47;1.52;;;4.50;96.80;;;;;;5054488;28;20025;-45
2023/03/16 07:38:42;;;;;;;8.50;1.85;;;4.60;96.00;;;;;;5051080;28;20110;-45
2023/03/16 07:41:08;;;;;;;3.60;1.90;;;4.90;96.00;;;;;;5042530;28;20040;-44
2023/03/16 07:43:34;;;;;;;9.02;1.75;;;5.10;94.80;;;;;;5065163;28;20276;-45
2023/03/16 07:46:00;;;;;;;3.40;1.52;;;5.20;94.10;;;;;;5048021;28;20100;-45
2023/03/16 07:48:26;;;;;;;3.40;1.63;;;5.10;94.30;;;;;;5050862;28;20017;-45
2023/03/16 07:50:53;;;;;;;3.38;1.42;;;5.20;94.60;;;;;;5050626;28;20025;-45
2023/03/16 07:53:19;;;;;;;4.40;1.40;;;5.50;93.20;;;;;;5054925;28;20492;-45
2023/03/16 07:55:45;;;;;;;6.45;1.50;;;5.70;93.30;;;;;;5052428;28;20253;-45
2023/03/16 07:58:11;;;;;;;10.40;1.90;;;6.10;92.30;;;;;;5048129;28;20025;-44
2023/03/16 08:00:37;;;;;;;6.53;1.80;;;6.10;91.80;;;;;;5050288;28;20044;-45
2023/03/16 08:03:03;;;;;;;4.10;1.75;;;6.10;91.80;;;;;;5050064;28;20020;-45
2023/03/16 08:05:31;;;;;;;6.85;1.60;;;6.00;91.90;;;;;;5054048;28;20024;-47
2023/03/16 08:07:57;;;;;;;4.60;1.35;;;6.10;91.90;;;;;;5047966;28;20301;-44
2023/03/16 08:10:23;;;;;;;5.25;1.52;;;6.00;91.10;;;;;;5047655;28;20450;-45
2023/03/16 08:12:50;;;;;;;7.63;2.38;;;6.40;91.20;;;;;;5048322;28;20021;-45
2023/03/16 08:15:16;;;;;;;4.15;1.63;;;6.40;90.70;;;;;;5051246;28;20015;-45
2023/03/16 08:17:42;;;;;;;5.00;1.73;;;6.30;90.90;;;;;;5052652;28;20078;-45
2023/03/16 08:20:09;;;;;;;8.38;1.90;;;6.40;90.60;;;;;;5057549;28;20476;-45
2023/03/16 08:22:35;;;;;;;3.72;1.48;;;6.40;90.30;;;;;;5049491;28;20021;-45
2023/03/16 08:25:02;;;;;;;2.72;1.48;;;6.60;90.00;;;;;;5049500;28;20020;-45
2023/03/16 08:27:28;;;;;;;5.05;1.60;;;6.80;90.10;;;;;;5048475;28;20021;-45
2023/03/16 08:29:54;;;;;;;12.93;1.98;;;6.90;88.50;;;;;;5048933;28;20021;-45
2023/03/16 08:32:20;;;;;;;7.43;1.73;;;7.10;86.90;;;;;;5048627;28;20087;-45
2023/03/16 08:34:46;;;;;;;6.43;2.03;;;7.20;84.50;;;;;;5049146;28;20111;-45
2023/03/16 08:37:12;;;;;;;5.28;1.42;;;7.30;85.20;;;;;;5049302;28;20040;-45
2023/03/16 08:39:40;;;;;;;4.45;1.65;;;7.70;84.60;;;;;;5048720;28;20021;-45
2023/03/16 08:42:06;;;;;;;6.97;3.13;;;8.40;81.60;;;;;;5048956;28;20108;-44
2023/03/16 08:44:32;;;;;;;54.65;29.75;;;8.80;77.90;;;;;;5047546;28;20454;-44
2023/03/16 08:46:58;;;;;;;8.07;2.50;;;10.30;73.70;;;;;;5049073;28;20037;-44
2023/03/16 08:49:24;;;;;;;4.68;1.83;;;10.10;69.90;;;;;;5050167;28;20135;-44
2023/03/16 08:51:50;;;;;;;5.03;1.60;;;10.40;69.20;;;;;;5051630;28;20096;-44
2023/03/16 08:54:15;;;;;;;9.98;2.28;;;10.20;69.90;;;;;;5047992;28;20036;-44
2023/03/16 08:56:42;;;;;;;4.20;1.80;;;11.80;66.70;;;;;;5041723;28;20021;-47
2023/03/16 08:59:08;;;;;;;2.67;1.38;;;11.70;65.30;;;;;;5043415;28;20470;-45
2023/03/16 09:01:33;;;;;;;6.10;1.83;;;12.80;62.60;;;;;;5044105;28;20017;-44
2023/03/16 09:04:00;;;;;;;2.70;1.20;;;14.10;60.80;;;;;;5047168;28;20017;-44
2023/03/16 09:06:26;;;;;;;4.55;1.48;;;13.70;57.20;;;;;;5049233;28;20313;-45
2023/03/16 09:08:52;;;;;;;6.07;1.63;;;14.30;57.40;;;;;;5044745;28;20017;-46
2023/03/16 09:11:18;;;;;;;4.18;1.40;;;15.40;55.20;;;;;;5047089;28;20052;-46
2023/03/16 09:13:45;;;;;;;4.70;1.35;;;15.40;54.40;;;;;;5048430;28;20020;-44
2023/03/16 09:16:12;;;;;;;8.55;2.17;;;14.70;53.50;;;;;;5044715;28;20052;-46
2023/03/16 09:18:38;;;;;;;5.75;1.90;;;15.30;54.10;;;;;;5045785;28;20398;-44
2023/03/16 09:21:06;;;;;;;5.07;1.85;;;16.70;51.70;;;;;;5053590;28;20032;-43
2023/03/16 09:23:33;;;;;;;3.95;1.40;;;17.70;51.50;;;;;;5049655;28;20021;-44
2023/03/16 09:26:01;;;;;;;3.60;1.40;;;18.60;45.90;;;;;;5040080;28;20026;-44
2023/03/16 09:28:28;;;;;;;5.85;2.00;;;18.10;45.90;;;;;;5040655;28;20022;-44
2023/03/16 09:30:55;;;;;;;2.92;1.40;;;16.20;46.40;;;;;;5038620;28;20013;-44
2023/03/16 09:33:21;;;;;;;4.05;1.40;;;17.70;46.60;;;;;;5037254;28;20021;-45
2023/03/16 09:35:47;;;;;;;4.93;1.40;;;17.30;45.20;;;;;;5031427;28;20026;-45
2023/03/16 09:38:12;;;;;;;9.23;1.60;;;17.70;45.50;;;;;;5038637;28;20101;-45
2023/03/16 09:40:40;;;;;;;5.75;1.85;;;17.90;44.10;;;;;;5043586;28;20401;-45
2023/03/16 09:43:35;;;;;;;5.60;1.65;;;17.60;43.20;;;;;;5038023;28;20025;-45
2023/03/16 09:46:12;;;;;;;3.90;1.45;;;17.00;44.20;;;;;;5042354;28;20025;-45
2023/03/16 09:48:39;;;;;;;5.28;1.50;;;16.70;42.70;;;;;;5042209;28;20021;-44
2023/03/16 09:51:13;;;;;;;6.75;1.58;;;16.30;46.20;;;;;;5045327;28;20060;-47
2023/03/16 09:53:39;;;;;;;4.22;1.45;;;17.40;43.40;;;;;;5039897;28;20024;-45
2023/03/16 09:56:12;;;;;;;3.95;1.40;;;15.40;45.80;;;;;;5042015;28;20589;-44
2023/03/16 09:58:38;;;;;;;5.00;1.45;;;16.30;46.70;;;;;;5041638;28;20126;-46
2023/03/16 10:01:23;;;;;;;4.38;1.50;;;15.60;44.40;;;;;;5040401;28;20056;-45
2023/03/16 10:04:06;;;;;;;4.78;1.38;;;15.90;45.60;;;;;;5043789;28;20033;-45
2023/03/16 10:06:32;;;;;;;4.10;1.52;;;16.00;43.40;;;;;;5055770;28;20417;-45
2023/03/16 10:09:15;;;;;;;3.50;1.17;;;15.10;44.80;;;;;;5045445;28;20025;-44
2023/03/16 10:11:48;;;;;;;4.53;1.27;;;16.40;43.50;;;;;;5044587;28;20025;-44
2023/03/16 10:14:26;;;;;;;3.85;1.38;;;16.60;43.90;;;;;;5048427;28;20021;-46
2023/03/16 10:17:02;;;;;;;4.55;1.15;;;16.70;41.30;;;;;;5048386;28;20009;-44
2023/03/16 10:19:48;;;;;;;4.63;1.25;;;17.60;41.10;;;;;;5048433;28;20021;-46
2023/03/16 10:22:25;;;;;;;3.78;1.90;;;17.20;41.50;;;;;;5045744;28;20021;-45
2023/03/16 10:24:51;;;;;;;3.97;1.30;;;18.30;39.50;;;;;;5044794;28;20084;-45
2023/03/16 10:27:27;;;;;;;3.65;1.20;;;17.50;38.10;;;;;;5045392;28;20107;-44
2023/03/16 10:29:53;;;;;;;3.40;1.27;;;17.90;37.80;;;;;;5045710;28;20478;-45
2023/03/16 10:32:18;;;;;;;6.53;1.73;;;16.20;41.50;;;;;;5046499;28;20036;-44
2023/03/16 10:35:01;;;;;;;3.30;1.20;;;18.00;40.70;;;;;;5043132;28;20087;-44
2023/03/16 10:37:29;;;;;;;3.65;1.42;;;16.90;38.40;;;;;;5046360;28;20025;-44
2023/03/16 10:39:56;;;;;;;7.60;2.00;;;17.30;41.50;;;;;;5058478;28;20028;-45
2023/03/16 10:42:23;;;;;;;3.13;1.08;;;18.90;39.70;;;;;;5052028;28;20023;-46
2023/03/16 10:44:56;;;;;;;4.85;1.23;;;20.00;37.00;;;;;;5051588;28;20305;-45
2023/03/16 10:47:24;;;;;;;2.67;1.20;;;21.30;37.10;;;;;;5051712;28;20128;-44
2023/03/16 10:49:50;;;;;;;4.88;1.35;;;21.60;36.20;;;;;;5051731;28;20013;-45
2023/03/16 10:52:22;;;;;;;2.90;1.25;;;21.70;35.10;;;;;;5051623;28;20044;-44
2023/03/16 10:55:22;;;;;;;2.80;1.20;;;19.40;37.10;;;;;;5059594;28;20017;-45
2023/03/16 10:57:52;;;;;;;4.38;1.80;;;18.00;39.30;;;;;;5044261;28;20037;-45
2023/03/16 11:00:24;;;;;;;3.70;1.52;;;19.50;39.40;;;;;;5049888;28;20395;-44
2023/03/16 11:02:53;;;;;;;3.53;1.70;;;21.20;39.60;;;;;;5051837;28;20573;-47
2023/03/16 11:05:19;;;;;;;2.92;1.30;;;22.20;38.30;;;;;;5059498;28;20033;-45
2023/03/16 11:08:12;;;;;;;5.45;1.48;;;21.10;38.30;;;;;;5051337;28;20206;-45
2023/03/16 11:10:47;;;;;;;7.57;1.65;;;22.10;36.90;;;;;;5050729;28;20401;-45
2023/03/16 11:13:16;;;;;;;6.30;1.88;;;20.60;39.10;;;;;;5049858;28;20021;-45
2023/03/16 11:15:50;;;;;;;3.78;1.58;;;21.10;38.80;;;;;;5049600;28;20044;-44
2023/03/16 11:18:34;;;;;;;4.32;1.40;;;17.90;39.80;;;;;;5051233;28;20031;-44
2023/03/16 11:21:33;;;;;;;2.53;1.25;;;16.70;42.30;;;;;;5051340;28;20025;-45
2023/03/16 11:24:00;;;;;;;4.40;1.63;;;16.70;42.20;;;;;;5051739;28;20363;-44
2023/03/16 11:26:38;;;;;;;3.70;1.40;;;17.00;43.20;;;;;;5061444;28;20027;-44
2023/03/16 11:29:31;;;;;;;2.88;1.13;;;18.50;40.00;;;;;;5068206;28;20017;-46
2023/03/16 11:32:02;;;;;;;6.20;1.65;;;18.30;40.20;;;;;;5041876;28;20021;-44
2023/03/16 11:34:29;;;;;;;4.43;1.75;;;19.20;40.60;;;;;;5048276;28;20021;-45
2023/03/16 11:37:24;;;;;;;3.92;1.48;;;19.60;38.60;;;;;;5047361;28;20017;-43
2023/03/16 11:40:27;;;;;;;6.63;1.48;;;20.60;37.10;;;;;;5050140;28;20048;-43
2023/03/16 11:42:56;;;;;;;2.30;1.00;;;21.10;36.60;;;;;;5043315;28;20020;-43
2023/03/16 11:45:42;;;;;;;5.05;1.20;;;19.20;37.30;;;;;;5048200;28;20102;-43
2023/03/16 11:48:38;;;;;;;6.28;1.77;;;20.70;37.00;;;;;;5048450;28;20072;-43
2023/03/16 11:51:24;;;;;;;2.72;1.40;;;20.40;35.60;;;;;;5047690;28;20104;-43
2023/03/16 11:54:11;;;;;;;4.32;1.40;;;20.60;39.10;;;;;;5049523;28;20009;-43
2023/03/16 11:56:42;;;;;;;6.97;1.40;;;20.70;36.10;;;;;;5044461;28;20021;-43
2023/03/16 11:59:31;;;;;;;5.28;1.35;;;22.00;35.90;;;;;;5046300;28;20040;-44
2023/03/16 12:02:20;;;;;;;2.15;0.90;;;21.70;37.90;;;;;;5041793;28;20043;-44
2023/03/16 12:05:27;;;;;;;6.88;1.40;;;20.70;34.60;;;;;;5061520;28;20034;-44
2023/03/16 12:08:03;;;;;;;4.32;1.30;;;20.30;36.00;;;;;;5064069;28;20028;-44
2023/03/16 12:10:38;;;;;;;3.08;1.42;;;18.00;37.70;;;;;;5045061;28;20020;-43
2023/03/16 12:13:06;;;;;;;4.57;1.30;;;19.70;37.70;;;;;;5046742;28;20390;-44
2023/03/16 12:16:07;;;;;;;4.68;1.52;;;19.10;36.50;;;;;;5043659;28;20064;-44
2023/03/16 12:18:52;;;;;;;2.45;1.15;;;18.20;39.50;;;;;;5039880;28;20029;-44
2023/03/16 12:21:27;;;;;;;2.55;1.10;;;18.50;38.90;;;;;;5046821;28;20431;-44
2023/03/16 12:23:57;;;;;;;2.97;1.00;;;19.10;36.70;;;;;;5047713;28;20096;-43
2023/03/16 12:26:24;;;;;;;;;;;17.30;38.20;;;;;;5047236;28;20067;-44
2023/03/16 12:28:51;;;;;;;4.35;1.20;;;16.30;38.40;;;;;;5054649;28;19966;-43
2023/03/16 12:31:31;;;;;;;3.80;0.88;;;15.20;41.60;;;;;;5048298;28;20116;-44
2023/03/16 12:34:23;;;;;;;3.20;1.33;;;16.10;40.10;;;;;;5049688;28;20075;-43
2023/03/16 12:37:13;;;;;;;6.63;1.10;;;16.00;40.80;;;;;;5049851;28;20028;-43
2023/03/16 12:40:07;;;;;;;4.60;0.85;;;16.00;39.40;;;;;;5049677;28;20021;-47
2023/03/16 12:42:48;;;;;;;5.30;1.10;;;15.00;40.20;;;;;;5053226;28;20426;-47
2023/03/16 12:45:41;;;;;;;3.03;1.00;;;15.70;43.20;;;;;;5058451;28;20025;-44
2023/03/16 12:48:07;;;;;;;6.38;1.20;;;15.70;40.50;;;;;;5058148;28;20021;-44
2023/03/16 12:50:33;;;;;;;5.22;1.00;;;15.50;39.30;;;;;;5049442;28;20020;-44
2023/03/16 12:52:58;;;;;;;3.92;1.20;;;15.20;40.70;;;;;;5057737;28;20021;-44
2023/03/16 12:55:33;;;;;;;2.05;1.08;;;14.20;40.20;;;;;;5052964;28;20020;-44
2023/03/16 12:58:03;;;;;;;2.70;1.30;;;15.00;43.60;;;;;;5060494;28;20298;-43
2023/03/16 13:00:41;;;;;;;3.10;1.00;;;15.20;42.20;;;;;;5049204;28;20112;-44
2023/03/16 13:03:15;;;;;;;3.00;1.42;;;13.70;40.90;;;;;;5057369;28;20107;-44
2023/03/16 13:05:49;;;;;;;3.40;1.20;;;13.80;42.60;;;;;;5054958;28;20071;-44